Main page
METAR-TAF:

METAR-TAF

Airports :

Norwich Airport

Norwich, England

latitude: 52-38N, longitude: 001-18E, elevation: 14 m

Current weather observation

The report was made 38 minutes ago, at 18:50 UTC
Wind 12 kt from the South, varying between Southeast and Southwest
Temperature 18°C
Humidity 59%
Pressure 1008 hPa
Visibility 10 km or more
no clouds below 1500 m and no cumulonimbus

METAR: EGSH 251850Z 17012KT 130V220 CAVOK 18/10 Q1008 NOSIG

Time: 20:28 (19:28 UTC)

Forecast

The report was made 2 hours and 32 minutes ago, at 16:56 UTC
Forecast valid from 25 at 18 UTC to 26 at 03 UTC
Wind 11 kt from the South/Southeast
Visibility 10 km or more
Few clouds at a height of 4500 ft
Probability 30% :
Temporary
from 25 at 18 UTC to 25 at 24 UTC
Wind 15 kt from the South with gusts up to 25 kt

TAF: EGSH 251656Z 2518/2603 16011KT 9999 FEW045 PROB30 TEMPO 2518/2524 17015G25KT

Weather observations and forecasts of more than 4000 airports (METAR and TAF reports).

The available stations are represented by yellow and red dots on the map.

Hover mouse over dot to see the name of the station.

Then click to see weather observations and forecasts.

To change the map : click on the green buttons with a black cross to zoom in, on the green button with a dash to zoom out, or on the green arrows for adjacent maps.


METAR-TAF: